Oneill, Nebraska
Current Conditions -  °F | °C
As of 6:55 PM on Friday 24 Oct 2014 (Local Time) from KONL Reporting Station
Haze Haze  
Wind Chill: 67°   Ceiling: Unl
Heat Index: 67°   Visibility: 2.5mi
Dew Point: 40°   Wind: 0mph
Humidity: 37%   Direction: NA
Pressure: 29.99"   Gusts: NA
Location:  42.46°N, 98.65°W
Report Text: KONL 242355Z AUTO 00000KT 2 1/2SM HZ CLR 19/04 A2999 RMK AO2 T01940042 10245 20194
Loading
Personal Weather Stations






























Interactive Weather Map
Tropical Storm Tracking
New forecast layout! Learn more

10-Day Weather Forecast

Advertisements
Track Severe Weather on mobile